createdAt,value
2023-05-04T00:00:32.846Z,7.05
2023-05-04T00:03:37.082Z,12.43
2023-05-04T00:06:40.999Z,6.95
2023-05-04T00:09:44.912Z,9.02
2023-05-04T00:12:48.793Z,8.77
2023-05-04T00:15:52.741Z,11.55
2023-05-04T00:18:56.822Z,12.70
2023-05-04T00:22:00.862Z,9.80
2023-05-04T00:25:04.669Z,14.73
2023-05-04T00:28:08.072Z,9.93
2023-05-04T00:31:11.537Z,8.38
2023-05-04T00:34:16.427Z,14.68
2023-05-04T00:37:19.735Z,8.52
2023-05-04T00:40:23.873Z,8.80
2023-05-04T00:43:27.635Z,6.90
2023-05-04T00:46:33.775Z,8.23
2023-05-04T00:49:37.632Z,12.43
2023-05-04T00:52:44.800Z,8.38
2023-05-04T00:55:48.634Z,11.63
2023-05-04T00:58:56.256Z,9.33
2023-05-04T01:01:59.203Z,14.82
2023-05-04T01:05:04.013Z,8.63
2023-05-04T01:08:33.113Z,7.00
2023-05-04T01:11:55.251Z,10.27
2023-05-04T01:14:59.735Z,8.13
2023-05-04T01:18:04.711Z,8.90
2023-05-04T01:21:10.381Z,6.05
2023-05-04T01:24:13.356Z,5.78
2023-05-04T01:27:48.084Z,7.68
2023-05-04T01:30:56.632Z,6.43
2023-05-04T01:34:01.043Z,5.32
2023-05-04T01:37:04.677Z,7.50
2023-05-04T01:40:10.080Z,6.25
2023-05-04T01:43:13.903Z,8.50
2023-05-04T01:46:17.319Z,4.40
2023-05-04T01:49:20.929Z,5.38
2023-05-04T01:52:26.163Z,4.53
2023-05-04T01:55:29.841Z,6.05
2023-05-04T01:58:33.610Z,8.93
2023-05-04T02:01:37.239Z,5.03
2023-05-04T02:04:41.993Z,10.05
2023-05-04T02:07:45.039Z,8.30
2023-05-04T02:10:49.030Z,7.80
2023-05-04T02:13:52.166Z,6.85
2023-05-04T02:16:55.266Z,5.77
2023-05-04T02:19:58.779Z,7.38
2023-05-04T02:23:02.275Z,9.85
2023-05-04T02:26:06.085Z,15.15
2023-05-04T02:29:09.505Z,7.32
2023-05-04T02:32:12.672Z,7.70
2023-05-04T02:35:16.830Z,14.40
2023-05-04T02:38:20.506Z,8.00
2023-05-04T02:41:24.477Z,5.97
2023-05-04T02:44:27.993Z,5.70
2023-05-04T02:47:32.020Z,6.03
2023-05-04T02:50:38.216Z,5.35
2023-05-04T02:53:42.056Z,5.28
2023-05-04T02:56:45.940Z,9.38
2023-05-04T02:59:50.249Z,6.18
2023-05-04T03:02:53.809Z,8.33
2023-05-04T03:05:58.308Z,8.90
2023-05-04T03:09:01.689Z,4.95
2023-05-04T03:12:06.897Z,5.20
2023-05-04T03:15:10.748Z,4.80
2023-05-04T03:18:15.176Z,3.87
2023-05-04T03:21:18.451Z,4.07
2023-05-04T03:24:23.113Z,5.72
2023-05-04T03:27:26.062Z,5.78
2023-05-04T03:30:30.221Z,5.45
2023-05-04T03:33:37.150Z,7.30
2023-05-04T03:36:40.818Z,6.30
2023-05-04T03:39:44.563Z,7.20
2023-05-04T03:42:48.479Z,6.93
2023-05-04T03:45:52.883Z,5.47
2023-05-04T03:48:56.990Z,9.20
2023-05-04T03:52:00.530Z,3.78
2023-05-04T03:55:04.135Z,5.00
2023-05-04T03:58:07.543Z,5.47
2023-05-04T04:01:11.811Z,6.35
2023-05-04T04:04:15.611Z,5.30
2023-05-04T04:07:19.086Z,5.55
2023-05-04T04:10:22.428Z,7.15
2023-05-04T04:13:25.891Z,4.65
2023-05-04T04:16:28.893Z,4.30
2023-05-04T04:19:32.288Z,3.10
2023-05-04T04:22:37.202Z,2.70
2023-05-04T04:25:40.188Z,3.13
2023-05-04T04:28:45.812Z,6.00
2023-05-04T04:31:48.811Z,4.80
2023-05-04T04:34:52.174Z,5.03
2023-05-04T04:37:56.013Z,5.75
2023-05-04T04:40:59.361Z,6.10
2023-05-04T04:44:03.083Z,4.25
2023-05-04T04:47:07.544Z,7.88
2023-05-04T04:50:11.540Z,8.60
2023-05-04T04:53:15.885Z,2.63
2023-05-04T04:56:19.338Z,27.45
2023-05-04T04:59:25.464Z,5.38
2023-05-04T05:02:28.983Z,3.20
2023-05-04T05:05:32.603Z,6.90
2023-05-04T05:08:36.416Z,4.22
2023-05-04T05:11:40.490Z,3.40
2023-05-04T05:14:44.324Z,5.35
2023-05-04T05:17:48.724Z,4.53
2023-05-04T05:20:52.448Z,4.63
2023-05-04T05:23:56.346Z,10.23
2023-05-04T05:27:00.944Z,4.28
2023-05-04T05:30:06.309Z,6.00
2023-05-04T05:33:09.685Z,5.70
2023-05-04T05:36:12.762Z,4.07
2023-05-04T05:39:16.381Z,4.60
2023-05-04T05:42:20.805Z,3.63
2023-05-04T05:45:23.824Z,5.25
2023-05-04T05:48:27.898Z,11.35
2023-05-04T05:51:31.648Z,12.10
2023-05-04T05:54:35.898Z,11.82
2023-05-04T05:57:38.828Z,3.10
2023-05-04T06:00:44.021Z,7.15
2023-05-04T06:03:47.590Z,3.17
2023-05-04T06:06:51.169Z,5.10
2023-05-04T06:09:54.952Z,8.60
2023-05-04T06:12:58.365Z,6.53
2023-05-04T06:16:02.152Z,4.63
2023-05-04T06:19:06.546Z,8.45
2023-05-04T06:22:09.553Z,8.10
2023-05-04T06:25:12.966Z,3.72
2023-05-04T06:28:16.725Z,3.67
2023-05-04T06:31:20.150Z,3.35
2023-05-04T06:34:23.442Z,4.55
2023-05-04T06:37:27.737Z,9.30
2023-05-04T06:40:31.061Z,7.68
2023-05-04T06:43:35.114Z,6.53
2023-05-04T06:46:38.652Z,4.90
2023-05-04T06:49:41.806Z,5.70
2023-05-04T06:52:46.937Z,3.73
2023-05-04T06:55:50.971Z,5.63
2023-05-04T06:58:54.518Z,4.93
2023-05-04T07:01:58.406Z,4.47
2023-05-04T07:05:02.989Z,2.20
2023-05-04T07:08:07.125Z,4.43
2023-05-04T07:11:11.192Z,2.50
2023-05-04T07:14:14.514Z,4.28
2023-05-04T07:17:17.586Z,4.55
2023-05-04T07:20:25.089Z,6.05
2023-05-04T07:23:29.656Z,3.50
2023-05-04T07:26:33.366Z,4.45
2023-05-04T07:29:37.289Z,5.65
2023-05-04T07:32:41.362Z,5.97
2023-05-04T07:35:45.058Z,2.70
2023-05-04T07:38:49.100Z,4.70
2023-05-04T07:41:55.732Z,5.82
2023-05-04T07:44:59.636Z,6.90
2023-05-04T07:48:02.656Z,7.45
2023-05-04T07:51:06.845Z,4.97
2023-05-04T07:54:10.769Z,4.23
2023-05-04T07:57:14.707Z,2.88
2023-05-04T08:00:19.076Z,4.75
2023-05-04T08:03:23.129Z,3.67
2023-05-04T08:06:27.445Z,15.60
2023-05-04T08:09:30.976Z,6.07
2023-05-04T08:12:34.018Z,5.57
2023-05-04T08:15:38.146Z,6.72
2023-05-04T08:18:41.841Z,10.45
2023-05-04T08:21:45.884Z,6.65
2023-05-04T08:24:49.601Z,3.57
2023-05-04T08:27:54.509Z,8.38
2023-05-04T08:30:58.594Z,2.60
2023-05-04T08:34:02.187Z,2.90
2023-05-04T08:37:06.704Z,3.25
2023-05-04T08:40:10.590Z,4.67
2023-05-04T08:43:15.017Z,2.85
2023-05-04T08:46:18.425Z,8.80
2023-05-04T08:49:23.750Z,8.02
2023-05-04T08:52:28.209Z,7.75
2023-05-04T08:55:34.738Z,4.73
2023-05-04T08:58:39.543Z,6.15
2023-05-04T09:01:43.855Z,5.07
2023-05-04T09:04:48.074Z,3.70
2023-05-04T09:07:53.460Z,8.43
2023-05-04T09:10:56.622Z,7.27
2023-05-04T09:13:59.978Z,4.65
2023-05-04T09:17:04.324Z,9.77
2023-05-04T09:20:08.486Z,3.83
2023-05-04T09:23:12.907Z,4.18
2023-05-04T09:26:16.693Z,7.00
2023-05-04T09:29:20.517Z,11.07
2023-05-04T09:32:25.099Z,4.53
2023-05-04T09:35:33.737Z,3.55
2023-05-04T09:38:37.693Z,5.70
2023-05-04T09:41:41.250Z,5.10
2023-05-04T09:44:44.569Z,5.28
2023-05-04T09:47:48.123Z,3.60
2023-05-04T09:50:54.972Z,7.65
2023-05-04T09:54:02.610Z,6.25
2023-05-04T09:57:14.064Z,6.73
2023-05-04T10:00:18.748Z,5.63
2023-05-04T10:03:22.954Z,3.50
2023-05-04T10:06:30.940Z,3.42
2023-05-04T10:09:35.811Z,7.75
2023-05-04T10:12:38.862Z,10.17
2023-05-04T10:16:25.096Z,5.53
2023-05-04T10:19:45.501Z,3.60
2023-05-04T10:23:37.351Z,8.32
2023-05-04T10:27:16.212Z,6.30
2023-05-04T10:30:19.658Z,5.67
2023-05-04T10:33:23.774Z,6.38
2023-05-04T10:36:37.613Z,6.28
2023-05-04T10:39:40.682Z,14.60
2023-05-04T10:42:44.831Z,9.20
2023-05-04T10:45:48.125Z,10.13
2023-05-04T10:48:52.488Z,5.90
2023-05-04T10:52:18.498Z,7.43
2023-05-04T10:55:23.143Z,5.82
2023-05-04T10:58:30.764Z,6.45
2023-05-04T11:01:44.256Z,3.97
2023-05-04T11:04:48.474Z,6.47
2023-05-04T11:07:53.736Z,6.90
2023-05-04T11:11:05.574Z,6.30
2023-05-04T11:14:08.967Z,9.25
2023-05-04T11:20:22.339Z,7.25
2023-05-04T11:23:25.805Z,8.73
2023-05-04T11:26:30.117Z,7.88
2023-05-04T11:29:34.002Z,11.90
2023-05-04T11:32:44.647Z,9.70
2023-05-04T11:35:48.458Z,10.43
2023-05-04T11:38:52.138Z,13.32
2023-05-04T11:41:55.198Z,8.65
2023-05-04T11:45:01.737Z,10.02
2023-05-04T11:48:05.971Z,15.00
2023-05-04T11:51:10.237Z,7.60
2023-05-04T11:54:22.271Z,10.45
2023-05-04T11:57:26.366Z,6.57
2023-05-04T12:00:40.677Z,12.05
2023-05-04T12:03:52.047Z,7.20
2023-05-04T12:07:00.221Z,5.68
2023-05-04T12:10:05.484Z,8.55
2023-05-04T12:13:18.289Z,7.68
2023-05-04T12:16:22.786Z,13.18
2023-05-04T12:19:26.587Z,11.73
2023-05-04T12:22:30.992Z,16.95
2023-05-04T12:25:34.536Z,35.05
2023-05-04T12:28:42.841Z,32.60
2023-05-04T12:31:46.697Z,37.78
2023-05-04T12:34:50.332Z,49.97
2023-05-04T12:37:54.161Z,36.35
2023-05-04T12:40:59.924Z,37.60
2023-05-04T12:44:03.412Z,43.30
2023-05-04T12:47:07.719Z,38.10
2023-05-04T12:50:11.200Z,36.67
2023-05-04T12:53:14.375Z,31.40
2023-05-04T12:56:17.509Z,21.17
2023-05-04T12:59:22.829Z,24.05
2023-05-04T13:02:26.823Z,23.45
2023-05-04T13:05:30.717Z,17.53
2023-05-04T13:08:34.062Z,13.40
2023-05-04T13:11:37.189Z,18.90
2023-05-04T13:14:41.213Z,12.25
2023-05-04T13:17:44.587Z,11.40
2023-05-04T13:20:48.560Z,15.70
2023-05-04T13:23:53.080Z,15.18
2023-05-04T13:26:56.833Z,14.68
2023-05-04T13:30:04.588Z,26.77
2023-05-04T13:33:20.625Z,26.95
2023-05-04T13:36:25.467Z,35.63
2023-05-04T13:39:29.496Z,27.70
2023-05-04T13:42:36.872Z,27.42
2023-05-04T13:45:41.047Z,30.63
2023-05-04T13:48:45.235Z,84.82
2023-05-04T13:51:48.988Z,31.17
2023-05-04T13:54:54.531Z,23.80
2023-05-04T13:57:58.095Z,32.47
2023-05-04T14:01:01.617Z,28.67
2023-05-04T14:04:04.834Z,27.38
2023-05-04T14:07:10.148Z,22.70
2023-05-04T14:10:13.799Z,25.95
2023-05-04T14:13:18.013Z,28.30
2023-05-04T14:16:46.451Z,41.47
2023-05-04T14:19:49.659Z,31.58
2023-05-04T14:22:52.768Z,44.53
2023-05-04T14:25:57.866Z,65.30
2023-05-04T14:29:01.000Z,55.70
2023-05-04T14:32:04.908Z,41.20
2023-05-04T14:35:10.337Z,38.38
2023-05-04T14:38:14.476Z,46.30
2023-05-04T14:41:19.215Z,26.48
2023-05-04T14:44:23.499Z,36.17
2023-05-04T14:47:27.984Z,30.77
2023-05-04T14:50:32.008Z,30.58
2023-05-04T14:53:37.277Z,31.93
2023-05-04T14:56:43.436Z,31.15
2023-05-04T14:59:47.371Z,38.30
2023-05-04T15:02:51.572Z,45.25
2023-05-04T15:05:55.350Z,44.38
2023-05-04T15:08:58.583Z,47.20
2023-05-04T15:12:01.549Z,38.30
2023-05-04T15:15:05.304Z,32.05
2023-05-04T15:18:09.095Z,31.88
2023-05-04T15:21:12.973Z,25.02
2023-05-04T15:24:16.627Z,31.80
2023-05-04T15:27:19.602Z,28.25
2023-05-04T15:30:23.951Z,26.08
2023-05-04T15:33:27.568Z,27.60
2023-05-04T15:36:33.922Z,25.45
2023-05-04T15:39:37.760Z,21.33
2023-05-04T15:42:40.661Z,21.50
2023-05-04T15:45:43.831Z,22.73
2023-05-04T15:48:46.712Z,17.92
2023-05-04T15:51:50.581Z,15.63
2023-05-04T15:54:53.418Z,20.30
2023-05-04T15:57:57.209Z,31.92
2023-05-04T16:01:04.397Z,33.03
2023-05-04T16:04:08.350Z,30.55
2023-05-04T16:07:11.679Z,22.92
2023-05-04T16:10:14.937Z,26.97
2023-05-04T16:13:18.540Z,28.83
2023-05-04T16:16:22.370Z,32.22
2023-05-04T16:19:26.400Z,45.47
2023-05-04T16:22:30.019Z,58.70
2023-05-04T16:25:33.784Z,56.87
2023-05-04T16:28:37.897Z,53.45
2023-05-04T16:31:41.010Z,47.65
2023-05-04T16:34:44.423Z,38.63
2023-05-04T16:37:48.105Z,53.65
2023-05-04T16:40:51.852Z,44.20
2023-05-04T16:43:55.540Z,45.35
2023-05-04T16:47:00.414Z,42.85
2023-05-04T16:50:03.996Z,45.40
2023-05-04T16:53:07.328Z,55.95
2023-05-04T16:56:17.950Z,61.07
2023-05-04T16:59:22.041Z,63.03
2023-05-04T17:02:26.355Z,48.72
2023-05-04T17:05:30.399Z,48.50
2023-05-04T17:08:35.490Z,53.85
2023-05-04T17:11:39.330Z,55.10
2023-05-04T17:14:42.546Z,59.60
2023-05-04T17:17:47.043Z,66.97
2023-05-04T17:20:50.659Z,63.25
2023-05-04T17:23:53.670Z,44.60
2023-05-04T17:26:56.829Z,32.73
2023-05-04T17:29:59.962Z,33.60
2023-05-04T17:33:03.465Z,30.75
2023-05-04T17:36:08.155Z,28.02
2023-05-04T17:39:11.129Z,25.48
2023-05-04T17:42:16.466Z,26.70
2023-05-04T17:45:20.267Z,24.83
2023-05-04T17:48:24.525Z,27.02
2023-05-04T17:51:28.279Z,30.73
2023-05-04T17:54:31.327Z,36.85
2023-05-04T17:57:34.525Z,31.13
2023-05-04T18:00:37.690Z,33.00
2023-05-04T18:03:42.357Z,37.80
2023-05-04T18:06:46.156Z,38.42
2023-05-04T18:09:49.463Z,50.35
2023-05-04T18:12:53.329Z,45.93
2023-05-04T18:15:56.890Z,37.42
2023-05-04T18:18:59.912Z,48.17
2023-05-04T18:22:03.209Z,40.22
2023-05-04T18:25:06.814Z,33.55
2023-05-04T18:28:10.521Z,37.77
2023-05-04T18:31:14.393Z,41.72
2023-05-04T18:34:17.682Z,47.63
2023-05-04T18:37:23.526Z,50.53
2023-05-04T18:40:26.761Z,47.88
2023-05-04T18:43:30.558Z,46.10
2023-05-04T18:46:33.519Z,46.47
2023-05-04T18:49:36.606Z,35.67
2023-05-04T18:52:40.351Z,42.03
2023-05-04T18:55:43.438Z,45.47
2023-05-04T18:58:47.503Z,44.87
2023-05-04T19:01:50.497Z,46.20
2023-05-04T19:04:54.436Z,43.50
2023-05-04T19:07:57.351Z,42.38
2023-05-04T19:11:00.687Z,42.28
2023-05-04T19:14:03.696Z,37.40
2023-05-04T19:17:07.456Z,31.52
2023-05-04T19:20:11.468Z,38.65
2023-05-04T19:23:14.924Z,34.78
2023-05-04T19:26:18.364Z,32.72
2023-05-04T19:29:21.926Z,37.43
2023-05-04T19:32:25.786Z,32.80
2023-05-04T19:35:29.853Z,32.85
2023-05-04T19:38:33.606Z,30.67
2023-05-04T19:41:37.649Z,32.28
2023-05-04T19:44:41.642Z,24.70
2023-05-04T19:47:46.268Z,31.27
2023-05-04T19:50:50.298Z,23.17
2023-05-04T19:53:54.143Z,22.48
2023-05-04T19:56:57.858Z,28.88
2023-05-04T20:00:02.963Z,27.30
2023-05-04T20:03:14.492Z,26.45
2023-05-04T20:06:18.868Z,23.52
2023-05-04T20:09:22.885Z,22.98
2023-05-04T20:12:27.507Z,24.92
2023-05-04T20:15:31.353Z,29.60
2023-05-04T20:18:35.174Z,23.08
2023-05-04T20:21:38.866Z,26.98
2023-05-04T20:24:43.240Z,30.13
2023-05-04T20:27:48.989Z,29.20
2023-05-04T20:30:53.178Z,30.93
2023-05-04T20:33:56.197Z,29.48
2023-05-04T20:37:00.148Z,34.53
2023-05-04T20:40:04.483Z,28.38
2023-05-04T20:43:09.063Z,30.98
2023-05-04T20:46:13.092Z,27.87
2023-05-04T20:49:16.673Z,35.75
2023-05-04T20:52:20.016Z,37.05
2023-05-04T20:55:23.346Z,30.83
2023-05-04T20:58:27.091Z,29.58
2023-05-04T21:01:31.254Z,27.83
2023-05-04T21:04:35.026Z,27.88
2023-05-04T21:07:39.132Z,29.80
2023-05-04T21:10:42.860Z,32.10
2023-05-04T21:13:46.733Z,26.67
2023-05-04T21:16:50.313Z,30.90
2023-05-04T21:19:54.473Z,25.77
2023-05-04T21:22:58.571Z,31.05
2023-05-04T21:26:05.842Z,25.08
2023-05-04T21:29:15.993Z,28.77
2023-05-04T21:32:19.671Z,25.50
2023-05-04T21:35:22.643Z,26.85
2023-05-04T21:38:26.679Z,25.42
2023-05-04T21:41:30.402Z,28.33
2023-05-04T21:44:34.279Z,29.15
2023-05-04T21:47:38.082Z,27.90
2023-05-04T21:50:41.834Z,28.13
2023-05-04T21:53:45.611Z,22.90
2023-05-04T21:56:49.630Z,25.05
2023-05-04T21:59:53.301Z,32.15
2023-05-04T22:02:57.069Z,34.17
2023-05-04T22:06:01.064Z,31.52
2023-05-04T22:09:06.001Z,32.30
2023-05-04T22:12:09.686Z,46.92
2023-05-04T22:15:14.884Z,31.90
2023-05-04T22:18:18.881Z,26.23
2023-05-04T22:21:22.735Z,33.63
2023-05-04T22:24:27.338Z,28.05
2023-05-04T22:27:31.449Z,32.15
2023-05-04T22:30:35.160Z,29.85
2023-05-04T22:33:39.330Z,31.90
2023-05-04T22:36:43.129Z,32.42
2023-05-04T22:39:46.513Z,26.00
2023-05-04T22:42:50.247Z,31.42
2023-05-04T22:45:54.115Z,38.60
2023-05-04T22:48:58.102Z,21.20
2023-05-04T22:52:01.829Z,31.70
2023-05-04T22:55:06.364Z,23.92
2023-05-04T22:58:10.406Z,20.17
2023-05-04T23:01:14.136Z,21.60
2023-05-04T23:04:17.868Z,22.17
2023-05-04T23:07:21.663Z,21.83
2023-05-04T23:10:25.538Z,22.52
2023-05-04T23:13:29.176Z,19.20
2023-05-04T23:16:33.074Z,26.08
2023-05-04T23:19:37.124Z,35.03
2023-05-04T23:22:40.763Z,17.85
2023-05-04T23:25:44.378Z,27.05
2023-05-04T23:28:48.284Z,21.88
2023-05-04T23:31:51.708Z,25.10
2023-05-04T23:34:55.689Z,22.13
2023-05-04T23:37:58.995Z,26.88
2023-05-04T23:41:06.165Z,22.95
2023-05-04T23:44:09.685Z,23.42
2023-05-04T23:47:13.134Z,36.95
2023-05-04T23:50:16.898Z,33.67
2023-05-04T23:53:20.934Z,28.45
2023-05-04T23:56:24.497Z,33.28
2023-05-04T23:59:28.436Z,32.65
